sensor_id;sensor_type;location;lat;lon;timestamp;temperature;humidity
76996;DHT22;65929;49.062;10.338;2023-03-05T00:00:29;0.50;80.30
76996;DHT22;65929;49.062;10.338;2023-03-05T00:01:31;0.50;80.10
76996;DHT22;65929;49.062;10.338;2023-03-05T00:02:34;0.50;80.00
76996;DHT22;65929;49.062;10.338;2023-03-05T00:03:36;0.60;80.00
76996;DHT22;65929;49.062;10.338;2023-03-05T00:04:37;0.60;79.90
76996;DHT22;65929;49.062;10.338;2023-03-05T00:05:38;0.60;79.90
76996;DHT22;65929;49.062;10.338;2023-03-05T00:06:40;0.60;79.90
76996;DHT22;65929;49.062;10.338;2023-03-05T00:07:42;0.60;79.90
76996;DHT22;65929;49.062;10.338;2023-03-05T00:08:43;0.60;80.10
76996;DHT22;65929;49.062;10.338;2023-03-05T00:09:44;0.50;80.30
76996;DHT22;65929;49.062;10.338;2023-03-05T00:10:45;0.50;80.20
76996;DHT22;65929;49.062;10.338;2023-03-05T00:11:54;0.50;80.10
76996;DHT22;65929;49.062;10.338;2023-03-05T00:12:55;0.50;80.10
76996;DHT22;65929;49.062;10.338;2023-03-05T00:13:57;0.50;80.30
76996;DHT22;65929;49.062;10.338;2023-03-05T00:14:58;0.60;80.10
76996;DHT22;65929;49.062;10.338;2023-03-05T00:16:01;0.60;80.00
76996;DHT22;65929;49.062;10.338;2023-03-05T00:17:03;0.60;80.10
76996;DHT22;65929;49.062;10.338;2023-03-05T00:18:04;0.60;80.10
76996;DHT22;65929;49.062;10.338;2023-03-05T00:19:05;0.60;80.10
76996;DHT22;65929;49.062;10.338;2023-03-05T00:20:07;0.60;80.10
76996;DHT22;65929;49.062;10.338;2023-03-05T00:21:18;0.50;80.20
76996;DHT22;65929;49.062;10.338;2023-03-05T00:22:19;0.60;80.50
76996;DHT22;65929;49.062;10.338;2023-03-05T00:23:21;0.60;80.70
76996;DHT22;65929;49.062;10.338;2023-03-05T00:24:22;0.60;80.50
76996;DHT22;65929;49.062;10.338;2023-03-05T00:25:23;0.50;80.60
76996;DHT22;65929;49.062;10.338;2023-03-05T00:26:25;0.50;80.30
76996;DHT22;65929;49.062;10.338;2023-03-05T00:27:27;0.50;80.20
76996;DHT22;65929;49.062;10.338;2023-03-05T00:28:27;0.60;80.20
76996;DHT22;65929;49.062;10.338;2023-03-05T00:29:29;0.60;80.30
76996;DHT22;65929;49.062;10.338;2023-03-05T00:30:30;0.60;80.30
76996;DHT22;65929;49.062;10.338;2023-03-05T00:31:32;0.60;80.30
76996;DHT22;65929;49.062;10.338;2023-03-05T00:32:33;0.60;80.30
76996;DHT22;65929;49.062;10.338;2023-03-05T00:33:35;0.60;80.30
76996;DHT22;65929;49.062;10.338;2023-03-05T00:34:36;0.50;80.30
76996;DHT22;65929;49.062;10.338;2023-03-05T00:35:39;0.60;80.30
76996;DHT22;65929;49.062;10.338;2023-03-05T00:36:41;0.60;80.30
76996;DHT22;65929;49.062;10.338;2023-03-05T00:37:42;0.60;80.20
76996;DHT22;65929;49.062;10.338;2023-03-05T00:38:44;0.60;80.30
76996;DHT22;65929;49.062;10.338;2023-03-05T00:39:45;0.60;80.30
76996;DHT22;65929;49.062;10.338;2023-03-05T00:40:49;0.60;80.30
76996;DHT22;65929;49.062;10.338;2023-03-05T00:41:51;0.60;80.20
76996;DHT22;65929;49.062;10.338;2023-03-05T00:42:52;0.60;80.20
76996;DHT22;65929;49.062;10.338;2023-03-05T00:43:53;0.60;80.20
76996;DHT22;65929;49.062;10.338;2023-03-05T00:44:54;0.60;80.30
76996;DHT22;65929;49.062;10.338;2023-03-05T00:45:55;0.60;80.30
76996;DHT22;65929;49.062;10.338;2023-03-05T00:46:56;0.60;80.30
76996;DHT22;65929;49.062;10.338;2023-03-05T00:47:57;0.60;80.40
76996;DHT22;65929;49.062;10.338;2023-03-05T00:48:58;0.60;80.50
76996;DHT22;65929;49.062;10.338;2023-03-05T00:50:00;0.60;80.50
76996;DHT22;65929;49.062;10.338;2023-03-05T00:51:01;0.60;80.70
76996;DHT22;65929;49.062;10.338;2023-03-05T00:52:03;0.60;80.60
76996;DHT22;65929;49.062;10.338;2023-03-05T00:53:04;0.60;80.70
76996;DHT22;65929;49.062;10.338;2023-03-05T00:54:06;0.60;80.60
76996;DHT22;65929;49.062;10.338;2023-03-05T00:55:08;0.60;80.50
76996;DHT22;65929;49.062;10.338;2023-03-05T00:56:09;0.60;80.70
76996;DHT22;65929;49.062;10.338;2023-03-05T00:57:10;0.60;80.70
76996;DHT22;65929;49.062;10.338;2023-03-05T00:58:10;0.60;80.90
76996;DHT22;65929;49.062;10.338;2023-03-05T00:59:11;0.60;80.90
76996;DHT22;65929;49.062;10.338;2023-03-05T01:00:14;0.60;80.90
76996;DHT22;65929;49.062;10.338;2023-03-05T01:01:15;0.60;80.80
76996;DHT22;65929;49.062;10.338;2023-03-05T01:02:16;0.60;80.80
76996;DHT22;65929;49.062;10.338;2023-03-05T01:03:18;0.60;80.90
76996;DHT22;65929;49.062;10.338;2023-03-05T01:04:18;0.60;81.00
76996;DHT22;65929;49.062;10.338;2023-03-05T01:05:20;0.60;80.90
76996;DHT22;65929;49.062;10.338;2023-03-05T01:06:21;0.60;81.00
76996;DHT22;65929;49.062;10.338;2023-03-05T01:07:22;0.60;81.00
76996;DHT22;65929;49.062;10.338;2023-03-05T01:08:23;0.60;81.00
76996;DHT22;65929;49.062;10.338;2023-03-05T01:09:25;0.60;81.00
76996;DHT22;65929;49.062;10.338;2023-03-05T01:10:27;0.60;81.00
76996;DHT22;65929;49.062;10.338;2023-03-05T01:11:29;0.60;81.10
76996;DHT22;65929;49.062;10.338;2023-03-05T01:12:31;0.60;81.40
76996;DHT22;65929;49.062;10.338;2023-03-05T01:13:32;0.60;81.40
76996;DHT22;65929;49.062;10.338;2023-03-05T01:14:33;0.60;81.50
76996;DHT22;65929;49.062;10.338;2023-03-05T01:15:35;0.60;81.40
76996;DHT22;65929;49.062;10.338;2023-03-05T01:16:36;0.60;81.40
76996;DHT22;65929;49.062;10.338;2023-03-05T01:17:37;0.60;81.50
76996;DHT22;65929;49.062;10.338;2023-03-05T01:18:38;0.60;81.50
76996;DHT22;65929;49.062;10.338;2023-03-05T01:19:40;0.60;81.50
76996;DHT22;65929;49.062;10.338;2023-03-05T01:20:41;0.60;81.50
76996;DHT22;65929;49.062;10.338;2023-03-05T01:21:42;0.60;81.40
76996;DHT22;65929;49.062;10.338;2023-03-05T01:22:43;0.60;81.40
76996;DHT22;65929;49.062;10.338;2023-03-05T01:23:44;0.60;81.50
76996;DHT22;65929;49.062;10.338;2023-03-05T01:24:46;0.60;81.50
76996;DHT22;65929;49.062;10.338;2023-03-05T01:25:52;0.60;81.60
76996;DHT22;65929;49.062;10.338;2023-03-05T01:26:53;0.60;81.70
76996;DHT22;65929;49.062;10.338;2023-03-05T01:27:54;0.60;81.80
76996;DHT22;65929;49.062;10.338;2023-03-05T01:28:55;0.60;82.00
76996;DHT22;65929;49.062;10.338;2023-03-05T01:29:56;0.60;82.00
76996;DHT22;65929;49.062;10.338;2023-03-05T01:30:57;0.60;82.00
76996;DHT22;65929;49.062;10.338;2023-03-05T01:31:58;0.50;81.90
76996;DHT22;65929;49.062;10.338;2023-03-05T01:32:58;0.60;82.10
76996;DHT22;65929;49.062;10.338;2023-03-05T01:33:59;0.60;82.20
76996;DHT22;65929;49.062;10.338;2023-03-05T01:35:01;0.50;82.10
76996;DHT22;65929;49.062;10.338;2023-03-05T01:36:06;0.50;82.20
76996;DHT22;65929;49.062;10.338;2023-03-05T01:37:08;0.50;82.20
76996;DHT22;65929;49.062;10.338;2023-03-05T01:38:09;0.60;82.20
76996;DHT22;65929;49.062;10.338;2023-03-05T01:39:10;0.60;82.10
76996;DHT22;65929;49.062;10.338;2023-03-05T01:40:14;0.60;82.10
76996;DHT22;65929;49.062;10.338;2023-03-05T01:41:17;0.60;82.00
76996;DHT22;65929;49.062;10.338;2023-03-05T01:42:19;0.50;82.10
76996;DHT22;65929;49.062;10.338;2023-03-05T01:43:24;0.50;82.10
76996;DHT22;65929;49.062;10.338;2023-03-05T01:44:26;0.50;82.10
76996;DHT22;65929;49.062;10.338;2023-03-05T01:45:30;0.50;82.10
76996;DHT22;65929;49.062;10.338;2023-03-05T01:46:33;0.50;82.20
76996;DHT22;65929;49.062;10.338;2023-03-05T01:47:34;0.50;82.10
76996;DHT22;65929;49.062;10.338;2023-03-05T01:48:36;0.60;82.10
76996;DHT22;65929;49.062;10.338;2023-03-05T01:49:38;0.60;82.00
76996;DHT22;65929;49.062;10.338;2023-03-05T01:50:39;0.60;82.10
76996;DHT22;65929;49.062;10.338;2023-03-05T01:51:44;0.60;82.00
76996;DHT22;65929;49.062;10.338;2023-03-05T01:52:50;0.60;81.90
76996;DHT22;65929;49.062;10.338;2023-03-05T01:53:54;0.60;82.10
76996;DHT22;65929;49.062;10.338;2023-03-05T01:54:58;0.60;82.00
76996;DHT22;65929;49.062;10.338;2023-03-05T01:56:02;0.60;82.10
76996;DHT22;65929;49.062;10.338;2023-03-05T01:57:07;0.50;82.10
76996;DHT22;65929;49.062;10.338;2023-03-05T01:58:12;0.50;82.30
76996;DHT22;65929;49.062;10.338;2023-03-05T01:59:13;0.50;82.30
76996;DHT22;65929;49.062;10.338;2023-03-05T02:00:19;0.50;82.40
76996;DHT22;65929;49.062;10.338;2023-03-05T02:01:35;0.50;82.30
76996;DHT22;65929;49.062;10.338;2023-03-05T02:02:38;0.50;82.20
76996;DHT22;65929;49.062;10.338;2023-03-05T02:03:39;0.50;82.20
76996;DHT22;65929;49.062;10.338;2023-03-05T02:04:44;0.60;82.10
76996;DHT22;65929;49.062;10.338;2023-03-05T02:05:48;0.50;82.00
76996;DHT22;65929;49.062;10.338;2023-03-05T02:06:49;0.50;82.10
76996;DHT22;65929;49.062;10.338;2023-03-05T02:07:50;0.50;82.10
76996;DHT22;65929;49.062;10.338;2023-03-05T02:08:54;0.50;82.10
76996;DHT22;65929;49.062;10.338;2023-03-05T02:09:55;0.50;82.10
76996;DHT22;65929;49.062;10.338;2023-03-05T02:11:03;0.50;82.20
76996;DHT22;65929;49.062;10.338;2023-03-05T02:12:09;0.50;82.20
76996;DHT22;65929;49.062;10.338;2023-03-05T02:13:17;0.50;82.20
76996;DHT22;65929;49.062;10.338;2023-03-05T02:14:21;0.50;82.20
76996;DHT22;65929;49.062;10.338;2023-03-05T02:15:24;0.50;82.40
76996;DHT22;65929;49.062;10.338;2023-03-05T02:16:28;0.50;82.40
76996;DHT22;65929;49.062;10.338;2023-03-05T02:17:35;0.50;82.20
76996;DHT22;65929;49.062;10.338;2023-03-05T02:18:36;0.50;82.20
76996;DHT22;65929;49.062;10.338;2023-03-05T02:19:54;0.50;82.40
76996;DHT22;65929;49.062;10.338;2023-03-05T02:21:02;0.50;82.40
76996;DHT22;65929;49.062;10.338;2023-03-05T02:22:03;0.50;82.40
76996;DHT22;65929;49.062;10.338;2023-03-05T02:23:04;0.50;82.30
76996;DHT22;65929;49.062;10.338;2023-03-05T02:24:06;0.50;82.30
76996;DHT22;65929;49.062;10.338;2023-03-05T02:25:16;0.50;82.40
76996;DHT22;65929;49.062;10.338;2023-03-05T02:26:18;0.50;82.30
76996;DHT22;65929;49.062;10.338;2023-03-05T02:27:24;0.50;82.40
76996;DHT22;65929;49.062;10.338;2023-03-05T02:28:37;0.50;82.40
76996;DHT22;65929;49.062;10.338;2023-03-05T02:29:46;0.50;82.40
76996;DHT22;65929;49.062;10.338;2023-03-05T02:30:47;0.50;82.30
76996;DHT22;65929;49.062;10.338;2023-03-05T02:31:49;0.50;82.20
76996;DHT22;65929;49.062;10.338;2023-03-05T02:32:50;0.50;82.30
76996;DHT22;65929;49.062;10.338;2023-03-05T02:33:55;0.50;82.30
76996;DHT22;65929;49.062;10.338;2023-03-05T02:34:56;0.50;82.30
76996;DHT22;65929;49.062;10.338;2023-03-05T02:35:57;0.40;82.50
76996;DHT22;65929;49.062;10.338;2023-03-05T02:37:02;0.40;82.50
76996;DHT22;65929;49.062;10.338;2023-03-05T02:38:04;0.40;82.70
76996;DHT22;65929;49.062;10.338;2023-03-05T02:39:05;0.50;82.70
76996;DHT22;65929;49.062;10.338;2023-03-05T02:40:07;0.40;82.70
76996;DHT22;65929;49.062;10.338;2023-03-05T02:41:09;0.40;82.70
76996;DHT22;65929;49.062;10.338;2023-03-05T02:42:16;0.40;82.80
76996;DHT22;65929;49.062;10.338;2023-03-05T02:43:17;0.40;82.90
76996;DHT22;65929;49.062;10.338;2023-03-05T02:44:18;0.40;82.90
76996;DHT22;65929;49.062;10.338;2023-03-05T02:45:19;0.40;82.90
76996;DHT22;65929;49.062;10.338;2023-03-05T02:46:20;0.40;83.00
76996;DHT22;65929;49.062;10.338;2023-03-05T02:47:21;0.40;83.10
76996;DHT22;65929;49.062;10.338;2023-03-05T02:48:21;0.40;83.20
76996;DHT22;65929;49.062;10.338;2023-03-05T02:49:22;0.40;83.20
76996;DHT22;65929;49.062;10.338;2023-03-05T02:50:24;0.40;83.20
76996;DHT22;65929;49.062;10.338;2023-03-05T02:51:26;0.40;83.20
76996;DHT22;65929;49.062;10.338;2023-03-05T02:52:29;0.40;83.30
76996;DHT22;65929;49.062;10.338;2023-03-05T02:53:30;0.30;83.30
76996;DHT22;65929;49.062;10.338;2023-03-05T02:54:31;0.30;83.30
76996;DHT22;65929;49.062;10.338;2023-03-05T02:55:32;0.30;83.40
76996;DHT22;65929;49.062;10.338;2023-03-05T02:56:34;0.30;83.50
76996;DHT22;65929;49.062;10.338;2023-03-05T02:57:35;0.30;83.50
76996;DHT22;65929;49.062;10.338;2023-03-05T02:58:35;0.30;83.60
76996;DHT22;65929;49.062;10.338;2023-03-05T02:59:36;0.30;83.50
76996;DHT22;65929;49.062;10.338;2023-03-05T03:00:37;0.30;83.60
76996;DHT22;65929;49.062;10.338;2023-03-05T03:01:38;0.30;83.60
76996;DHT22;65929;49.062;10.338;2023-03-05T03:02:39;0.30;83.60
76996;DHT22;65929;49.062;10.338;2023-03-05T03:03:40;0.30;83.70
76996;DHT22;65929;49.062;10.338;2023-03-05T03:04:41;0.30;83.70
76996;DHT22;65929;49.062;10.338;2023-03-05T03:05:42;0.20;83.60
76996;DHT22;65929;49.062;10.338;2023-03-05T03:06:43;0.20;83.60
76996;DHT22;65929;49.062;10.338;2023-03-05T03:07:45;0.20;83.70
76996;DHT22;65929;49.062;10.338;2023-03-05T03:08:46;0.30;83.80
76996;DHT22;65929;49.062;10.338;2023-03-05T03:09:47;0.20;83.70
76996;DHT22;65929;49.062;10.338;2023-03-05T03:10:48;0.30;83.70
76996;DHT22;65929;49.062;10.338;2023-03-05T03:11:49;0.20;83.80
76996;DHT22;65929;49.062;10.338;2023-03-05T03:12:50;0.20;83.80
76996;DHT22;65929;49.062;10.338;2023-03-05T03:13:51;0.20;83.90
76996;DHT22;65929;49.062;10.338;2023-03-05T03:14:52;0.20;83.90
76996;DHT22;65929;49.062;10.338;2023-03-05T03:16:01;0.20;83.90
76996;DHT22;65929;49.062;10.338;2023-03-05T03:17:02;0.20;83.90
76996;DHT22;65929;49.062;10.338;2023-03-05T03:18:03;0.20;84.10
76996;DHT22;65929;49.062;10.338;2023-03-05T03:19:04;0.20;84.00
76996;DHT22;65929;49.062;10.338;2023-03-05T03:20:10;0.20;84.20
76996;DHT22;65929;49.062;10.338;2023-03-05T03:21:17;0.20;84.20
76996;DHT22;65929;49.062;10.338;2023-03-05T03:22:18;0.20;84.10
76996;DHT22;65929;49.062;10.338;2023-03-05T03:23:21;0.20;84.10
76996;DHT22;65929;49.062;10.338;2023-03-05T03:24:22;0.20;84.10
76996;DHT22;65929;49.062;10.338;2023-03-05T03:25:23;0.20;84.10
76996;DHT22;65929;49.062;10.338;2023-03-05T03:26:24;0.20;84.20
76996;DHT22;65929;49.062;10.338;2023-03-05T03:27:25;0.20;84.20
76996;DHT22;65929;49.062;10.338;2023-03-05T03:28:26;0.20;84.40
76996;DHT22;65929;49.062;10.338;2023-03-05T03:29:27;0.20;84.50
76996;DHT22;65929;49.062;10.338;2023-03-05T03:30:28;0.20;84.60
76996;DHT22;65929;49.062;10.338;2023-03-05T03:31:29;0.20;84.60
76996;DHT22;65929;49.062;10.338;2023-03-05T03:32:30;0.20;84.70
76996;DHT22;65929;49.062;10.338;2023-03-05T03:33:31;0.20;84.70
76996;DHT22;65929;49.062;10.338;2023-03-05T03:34:32;0.20;84.80
76996;DHT22;65929;49.062;10.338;2023-03-05T03:35:33;0.10;85.00
76996;DHT22;65929;49.062;10.338;2023-03-05T03:36:34;0.10;85.00
76996;DHT22;65929;49.062;10.338;2023-03-05T03:37:35;0.10;85.00
76996;DHT22;65929;49.062;10.338;2023-03-05T03:38:38;0.10;85.10
76996;DHT22;65929;49.062;10.338;2023-03-05T03:39:39;0.10;85.10
76996;DHT22;65929;49.062;10.338;2023-03-05T03:40:40;0.20;85.00
76996;DHT22;65929;49.062;10.338;2023-03-05T03:41:43;0.20;84.90
76996;DHT22;65929;49.062;10.338;2023-03-05T03:42:44;0.20;84.80
76996;DHT22;65929;49.062;10.338;2023-03-05T03:43:45;0.20;84.80
76996;DHT22;65929;49.062;10.338;2023-03-05T03:44:46;0.20;84.80
76996;DHT22;65929;49.062;10.338;2023-03-05T03:45:47;0.20;84.60
76996;DHT22;65929;49.062;10.338;2023-03-05T03:46:49;0.20;84.70
76996;DHT22;65929;49.062;10.338;2023-03-05T03:47:50;0.20;84.70
76996;DHT22;65929;49.062;10.338;2023-03-05T03:48:51;0.20;84.50
76996;DHT22;65929;49.062;10.338;2023-03-05T03:49:53;0.30;84.40
76996;DHT22;65929;49.062;10.338;2023-03-05T03:50:54;0.30;84.50
76996;DHT22;65929;49.062;10.338;2023-03-05T03:51:55;0.20;84.60
76996;DHT22;65929;49.062;10.338;2023-03-05T03:52:57;0.20;84.80
76996;DHT22;65929;49.062;10.338;2023-03-05T03:54:00;0.20;84.80
76996;DHT22;65929;49.062;10.338;2023-03-05T03:55:01;0.20;84.80
76996;DHT22;65929;49.062;10.338;2023-03-05T03:56:02;0.20;84.80
76996;DHT22;65929;49.062;10.338;2023-03-05T03:57:10;0.20;84.70
76996;DHT22;65929;49.062;10.338;2023-03-05T03:58:11;0.30;84.60
76996;DHT22;65929;49.062;10.338;2023-03-05T03:59:13;0.30;84.50
76996;DHT22;65929;49.062;10.338;2023-03-05T04:00:15;0.20;84.50
76996;DHT22;65929;49.062;10.338;2023-03-05T04:01:16;0.30;84.40
76996;DHT22;65929;49.062;10.338;2023-03-05T04:02:17;0.20;84.50
76996;DHT22;65929;49.062;10.338;2023-03-05T04:03:18;0.20;84.50
76996;DHT22;65929;49.062;10.338;2023-03-05T04:04:19;0.30;84.40
76996;DHT22;65929;49.062;10.338;2023-03-05T04:05:20;0.30;84.50
76996;DHT22;65929;49.062;10.338;2023-03-05T04:06:21;0.30;84.50
76996;DHT22;65929;49.062;10.338;2023-03-05T04:07:22;0.30;84.60
76996;DHT22;65929;49.062;10.338;2023-03-05T04:08:23;0.30;84.60
76996;DHT22;65929;49.062;10.338;2023-03-05T04:09:26;0.30;84.60
76996;DHT22;65929;49.062;10.338;2023-03-05T04:10:27;0.30;84.60
76996;DHT22;65929;49.062;10.338;2023-03-05T04:11:27;0.30;84.60
76996;DHT22;65929;49.062;10.338;2023-03-05T04:12:28;0.30;84.70
76996;DHT22;65929;49.062;10.338;2023-03-05T04:13:29;0.20;84.80
76996;DHT22;65929;49.062;10.338;2023-03-05T04:14:30;0.20;84.80
76996;DHT22;65929;49.062;10.338;2023-03-05T04:15:31;0.20;84.80
76996;DHT22;65929;49.062;10.338;2023-03-05T04:16:32;0.30;84.80
76996;DHT22;65929;49.062;10.338;2023-03-05T04:17:33;0.30;84.70
76996;DHT22;65929;49.062;10.338;2023-03-05T04:18:34;0.30;84.80
76996;DHT22;65929;49.062;10.338;2023-03-05T04:19:35;0.30;84.60
76996;DHT22;65929;49.062;10.338;2023-03-05T04:20:36;0.30;84.50
76996;DHT22;65929;49.062;10.338;2023-03-05T04:21:37;0.30;84.60
76996;DHT22;65929;49.062;10.338;2023-03-05T04:22:38;0.30;84.60
76996;DHT22;65929;49.062;10.338;2023-03-05T04:23:39;0.30;84.60
76996;DHT22;65929;49.062;10.338;2023-03-05T04:24:42;0.30;84.50
76996;DHT22;65929;49.062;10.338;2023-03-05T04:25:43;0.30;84.40
76996;DHT22;65929;49.062;10.338;2023-03-05T04:26:44;0.30;84.50
76996;DHT22;65929;49.062;10.338;2023-03-05T04:27:45;0.30;84.70
76996;DHT22;65929;49.062;10.338;2023-03-05T04:28:46;0.30;84.80
76996;DHT22;65929;49.062;10.338;2023-03-05T04:29:48;0.30;85.00
76996;DHT22;65929;49.062;10.338;2023-03-05T04:30:49;0.30;85.00
76996;DHT22;65929;49.062;10.338;2023-03-05T04:31:50;0.30;85.10
76996;DHT22;65929;49.062;10.338;2023-03-05T04:32:50;0.30;85.00
76996;DHT22;65929;49.062;10.338;2023-03-05T04:33:51;0.30;84.90
76996;DHT22;65929;49.062;10.338;2023-03-05T04:34:52;0.30;85.00
76996;DHT22;65929;49.062;10.338;2023-03-05T04:35:54;0.30;85.10
76996;DHT22;65929;49.062;10.338;2023-03-05T04:36:55;0.30;85.00
76996;DHT22;65929;49.062;10.338;2023-03-05T04:37:56;0.30;84.90
76996;DHT22;65929;49.062;10.338;2023-03-05T04:38:57;0.30;84.90
76996;DHT22;65929;49.062;10.338;2023-03-05T04:39:59;0.30;84.90
76996;DHT22;65929;49.062;10.338;2023-03-05T04:41:00;0.30;85.00
76996;DHT22;65929;49.062;10.338;2023-03-05T04:42:01;0.30;85.10
76996;DHT22;65929;49.062;10.338;2023-03-05T04:43:03;0.20;85.20
76996;DHT22;65929;49.062;10.338;2023-03-05T04:44:04;0.20;85.30
76996;DHT22;65929;49.062;10.338;2023-03-05T04:45:06;0.20;85.30
76996;DHT22;65929;49.062;10.338;2023-03-05T04:46:07;0.20;85.40
76996;DHT22;65929;49.062;10.338;2023-03-05T04:47:08;0.20;85.50
76996;DHT22;65929;49.062;10.338;2023-03-05T04:48:10;0.20;85.60
76996;DHT22;65929;49.062;10.338;2023-03-05T04:49:11;0.20;85.60
76996;DHT22;65929;49.062;10.338;2023-03-05T04:50:13;0.20;85.70
76996;DHT22;65929;49.062;10.338;2023-03-05T04:51:14;0.20;85.50
76996;DHT22;65929;49.062;10.338;2023-03-05T04:52:15;0.20;85.80
76996;DHT22;65929;49.062;10.338;2023-03-05T04:53:15;0.20;85.70
76996;DHT22;65929;49.062;10.338;2023-03-05T04:54:16;0.20;85.80
76996;DHT22;65929;49.062;10.338;2023-03-05T04:55:19;0.30;85.80
76996;DHT22;65929;49.062;10.338;2023-03-05T04:56:20;0.30;85.70
76996;DHT22;65929;49.062;10.338;2023-03-05T04:57:21;0.30;85.60
76996;DHT22;65929;49.062;10.338;2023-03-05T04:58:22;0.30;85.50
76996;DHT22;65929;49.062;10.338;2023-03-05T04:59:23;0.30;85.40
76996;DHT22;65929;49.062;10.338;2023-03-05T05:00:25;0.40;85.40
76996;DHT22;65929;49.062;10.338;2023-03-05T05:01:26;0.40;85.20
76996;DHT22;65929;49.062;10.338;2023-03-05T05:02:27;0.40;85.10
76996;DHT22;65929;49.062;10.338;2023-03-05T05:03:27;0.40;85.10
76996;DHT22;65929;49.062;10.338;2023-03-05T05:04:28;0.40;85.10
76996;DHT22;65929;49.062;10.338;2023-03-05T05:05:29;0.50;85.00
76996;DHT22;65929;49.062;10.338;2023-03-05T05:06:30;0.50;84.90
76996;DHT22;65929;49.062;10.338;2023-03-05T05:07:31;0.50;84.80
76996;DHT22;65929;49.062;10.338;2023-03-05T05:08:32;0.50;84.80
76996;DHT22;65929;49.062;10.338;2023-03-05T05:09:33;0.50;84.80
76996;DHT22;65929;49.062;10.338;2023-03-05T05:10:36;0.50;84.90
76996;DHT22;65929;49.062;10.338;2023-03-05T05:11:40;0.50;84.80
76996;DHT22;65929;49.062;10.338;2023-03-05T05:12:41;0.50;84.90
76996;DHT22;65929;49.062;10.338;2023-03-05T05:13:42;0.50;85.00
76996;DHT22;65929;49.062;10.338;2023-03-05T05:14:43;0.50;85.00
76996;DHT22;65929;49.062;10.338;2023-03-05T05:15:44;0.50;84.80
76996;DHT22;65929;49.062;10.338;2023-03-05T05:16:45;0.50;84.70
76996;DHT22;65929;49.062;10.338;2023-03-05T05:17:46;0.50;84.70
76996;DHT22;65929;49.062;10.338;2023-03-05T05:18:47;0.50;84.70
76996;DHT22;65929;49.062;10.338;2023-03-05T05:19:48;0.50;84.60
76996;DHT22;65929;49.062;10.338;2023-03-05T05:20:49;0.60;84.50
76996;DHT22;65929;49.062;10.338;2023-03-05T05:21:50;0.60;84.40
76996;DHT22;65929;49.062;10.338;2023-03-05T05:22:51;0.50;84.50
76996;DHT22;65929;49.062;10.338;2023-03-05T05:23:52;0.50;84.60
76996;DHT22;65929;49.062;10.338;2023-03-05T05:24:53;0.50;84.60
76996;DHT22;65929;49.062;10.338;2023-03-05T05:25:59;0.50;84.60
76996;DHT22;65929;49.062;10.338;2023-03-05T05:27:01;0.60;84.70
76996;DHT22;65929;49.062;10.338;2023-03-05T05:28:02;0.60;84.60
76996;DHT22;65929;49.062;10.338;2023-03-05T05:29:03;0.60;84.50
76996;DHT22;65929;49.062;10.338;2023-03-05T05:30:04;0.60;84.50
76996;DHT22;65929;49.062;10.338;2023-03-05T05:31:07;0.60;84.40
76996;DHT22;65929;49.062;10.338;2023-03-05T05:32:08;0.60;84.50
76996;DHT22;65929;49.062;10.338;2023-03-05T05:33:09;0.60;84.30
76996;DHT22;65929;49.062;10.338;2023-03-05T05:34:10;0.60;84.30
76996;DHT22;65929;49.062;10.338;2023-03-05T05:35:11;0.60;84.30
76996;DHT22;65929;49.062;10.338;2023-03-05T05:36:13;0.60;84.30
76996;DHT22;65929;49.062;10.338;2023-03-05T05:37:15;0.60;84.20
76996;DHT22;65929;49.062;10.338;2023-03-05T05:38:16;0.60;84.30
76996;DHT22;65929;49.062;10.338;2023-03-05T05:39:17;0.60;84.30
76996;DHT22;65929;49.062;10.338;2023-03-05T05:40:18;0.60;84.20
76996;DHT22;65929;49.062;10.338;2023-03-05T05:41:20;0.60;84.20
76996;DHT22;65929;49.062;10.338;2023-03-05T05:42:23;0.60;84.20
76996;DHT22;65929;49.062;10.338;2023-03-05T05:43:24;0.60;84.10
76996;DHT22;65929;49.062;10.338;2023-03-05T05:44:25;0.60;84.00
76996;DHT22;65929;49.062;10.338;2023-03-05T05:45:26;0.60;84.20
76996;DHT22;65929;49.062;10.338;2023-03-05T05:46:27;0.60;84.20
76996;DHT22;65929;49.062;10.338;2023-03-05T05:47:28;0.60;84.20
76996;DHT22;65929;49.062;10.338;2023-03-05T05:48:31;0.60;84.20
76996;DHT22;65929;49.062;10.338;2023-03-05T05:49:32;0.60;84.30
76996;DHT22;65929;49.062;10.338;2023-03-05T05:50:33;0.60;84.30
76996;DHT22;65929;49.062;10.338;2023-03-05T05:51:34;0.60;84.30
76996;DHT22;65929;49.062;10.338;2023-03-05T05:52:35;0.60;84.30
76996;DHT22;65929;49.062;10.338;2023-03-05T05:53:36;0.60;84.30
76996;DHT22;65929;49.062;10.338;2023-03-05T05:54:37;0.60;84.40
76996;DHT22;65929;49.062;10.338;2023-03-05T05:55:39;0.60;84.40
76996;DHT22;65929;49.062;10.338;2023-03-05T05:56:42;0.60;84.50
76996;DHT22;65929;49.062;10.338;2023-03-05T05:57:43;0.60;84.40
76996;DHT22;65929;49.062;10.338;2023-03-05T05:58:45;0.60;84.30
76996;DHT22;65929;49.062;10.338;2023-03-05T05:59:47;0.60;84.30
76996;DHT22;65929;49.062;10.338;2023-03-05T06:00:47;0.60;84.40
76996;DHT22;65929;49.062;10.338;2023-03-05T06:01:48;0.60;84.40
76996;DHT22;65929;49.062;10.338;2023-03-05T06:02:49;0.60;84.30
76996;DHT22;65929;49.062;10.338;2023-03-05T06:03:51;0.60;84.30
76996;DHT22;65929;49.062;10.338;2023-03-05T06:04:52;0.60;84.30
76996;DHT22;65929;49.062;10.338;2023-03-05T06:05:53;0.60;84.20
76996;DHT22;65929;49.062;10.338;2023-03-05T06:06:54;0.60;84.20
76996;DHT22;65929;49.062;10.338;2023-03-05T06:07:55;0.60;84.20
76996;DHT22;65929;49.062;10.338;2023-03-05T06:08:56;0.60;84.20
76996;DHT22;65929;49.062;10.338;2023-03-05T06:09:57;0.60;84.30
76996;DHT22;65929;49.062;10.338;2023-03-05T06:10:58;0.60;84.30
76996;DHT22;65929;49.062;10.338;2023-03-05T06:12:01;0.60;84.20
76996;DHT22;65929;49.062;10.338;2023-03-05T06:13:01;0.60;84.30
76996;DHT22;65929;49.062;10.338;2023-03-05T06:14:02;0.60;84.40
76996;DHT22;65929;49.062;10.338;2023-03-05T06:15:04;0.60;84.30
76996;DHT22;65929;49.062;10.338;2023-03-05T06:16:10;0.60;84.40
76996;DHT22;65929;49.062;10.338;2023-03-05T06:17:11;0.60;84.40
76996;DHT22;65929;49.062;10.338;2023-03-05T06:18:12;0.60;84.40
76996;DHT22;65929;49.062;10.338;2023-03-05T06:19:14;0.60;84.40
76996;DHT22;65929;49.062;10.338;2023-03-05T06:20:15;0.60;84.50
76996;DHT22;65929;49.062;10.338;2023-03-05T06:21:18;0.60;84.40
76996;DHT22;65929;49.062;10.338;2023-03-05T06:22:19;0.60;84.50
76996;DHT22;65929;49.062;10.338;2023-03-05T06:23:20;0.60;84.50
76996;DHT22;65929;49.062;10.338;2023-03-05T06:24:21;0.60;84.50
76996;DHT22;65929;49.062;10.338;2023-03-05T06:25:22;0.60;84.50
76996;DHT22;65929;49.062;10.338;2023-03-05T06:26:24;0.60;84.50
76996;DHT22;65929;49.062;10.338;2023-03-05T06:27:26;0.60;84.60
76996;DHT22;65929;49.062;10.338;2023-03-05T06:28:28;0.60;84.60
76996;DHT22;65929;49.062;10.338;2023-03-05T06:29:29;0.60;84.60
76996;DHT22;65929;49.062;10.338;2023-03-05T06:30:30;0.60;84.60